sensor_id;sensor_type;location;lat;lon;timestamp;P1;durP1;ratioP1;P2;durP2;ratioP2
32633;SDS011;19043;51.012;5.648;2023-08-08T00:01:28;5.55;;;2.95;;
32633;SDS011;19043;51.012;5.648;2023-08-08T00:03:53;4.05;;;2.35;;
32633;SDS011;19043;51.012;5.648;2023-08-08T00:06:19;6.10;;;2.73;;
32633;SDS011;19043;51.012;5.648;2023-08-08T00:08:44;3.63;;;2.13;;
32633;SDS011;19043;51.012;5.648;2023-08-08T00:11:09;3.60;;;2.03;;
32633;SDS011;19043;51.012;5.648;2023-08-08T00:13:34;5.10;;;2.75;;
32633;SDS011;19043;51.012;5.648;2023-08-08T00:15:59;6.20;;;3.03;;
32633;SDS011;19043;51.012;5.648;2023-08-08T00:18:25;4.57;;;2.58;;
32633;SDS011;19043;51.012;5.648;2023-08-08T00:20:50;5.50;;;2.47;;
32633;SDS011;19043;51.012;5.648;2023-08-08T00:23:15;4.72;;;2.42;;
32633;SDS011;19043;51.012;5.648;2023-08-08T00:25:41;4.30;;;2.53;;
32633;SDS011;19043;51.012;5.648;2023-08-08T00:28:06;5.72;;;3.08;;
32633;SDS011;19043;51.012;5.648;2023-08-08T00:30:31;5.15;;;3.33;;
32633;SDS011;19043;51.012;5.648;2023-08-08T00:32:57;7.47;;;2.83;;
32633;SDS011;19043;51.012;5.648;2023-08-08T00:35:22;5.90;;;3.28;;
32633;SDS011;19043;51.012;5.648;2023-08-08T00:37:47;4.80;;;3.58;;
32633;SDS011;19043;51.012;5.648;2023-08-08T00:40:13;6.40;;;3.28;;
32633;SDS011;19043;51.012;5.648;2023-08-08T00:42:38;4.93;;;3.53;;
32633;SDS011;19043;51.012;5.648;2023-08-08T00:45:03;5.32;;;3.25;;
32633;SDS011;19043;51.012;5.648;2023-08-08T00:47:32;5.30;;;3.00;;
32633;SDS011;19043;51.012;5.648;2023-08-08T00:49:58;8.50;;;2.85;;
32633;SDS011;19043;51.012;5.648;2023-08-08T00:52:23;4.93;;;2.97;;
32633;SDS011;19043;51.012;5.648;2023-08-08T00:54:51;5.22;;;3.05;;
32633;SDS011;19043;51.012;5.648;2023-08-08T00:57:17;6.75;;;3.65;;
32633;SDS011;19043;51.012;5.648;2023-08-08T00:59:42;4.70;;;2.92;;
32633;SDS011;19043;51.012;5.648;2023-08-08T01:02:07;4.00;;;2.70;;
32633;SDS011;19043;51.012;5.648;2023-08-08T01:04:33;4.90;;;2.88;;
32633;SDS011;19043;51.012;5.648;2023-08-08T01:09:45;5.10;;;3.15;;
32633;SDS011;19043;51.012;5.648;2023-08-08T01:12:13;3.90;;;2.33;;
32633;SDS011;19043;51.012;5.648;2023-08-08T01:14:40;5.75;;;2.45;;
32633;SDS011;19043;51.012;5.648;2023-08-08T01:17:06;6.15;;;3.05;;
32633;SDS011;19043;51.012;5.648;2023-08-08T01:19:31;6.22;;;2.55;;
32633;SDS011;19043;51.012;5.648;2023-08-08T01:22:03;4.90;;;2.45;;
32633;SDS011;19043;51.012;5.648;2023-08-08T01:24:29;5.82;;;3.15;;
32633;SDS011;19043;51.012;5.648;2023-08-08T01:26:57;4.85;;;2.30;;
32633;SDS011;19043;51.012;5.648;2023-08-08T01:29:23;5.15;;;2.65;;
32633;SDS011;19043;51.012;5.648;2023-08-08T01:31:48;4.10;;;2.20;;
32633;SDS011;19043;51.012;5.648;2023-08-08T01:34:14;4.90;;;2.15;;
32633;SDS011;19043;51.012;5.648;2023-08-08T01:36:45;8.25;;;2.50;;
32633;SDS011;19043;51.012;5.648;2023-08-08T01:39:13;5.72;;;2.60;;
32633;SDS011;19043;51.012;5.648;2023-08-08T01:41:39;6.70;;;2.35;;
32633;SDS011;19043;51.012;5.648;2023-08-08T01:44:04;3.88;;;2.10;;
32633;SDS011;19043;51.012;5.648;2023-08-08T01:46:31;3.38;;;2.03;;
32633;SDS011;19043;51.012;5.648;2023-08-08T01:48:57;4.13;;;2.17;;
32633;SDS011;19043;51.012;5.648;2023-08-08T01:51:23;5.47;;;2.80;;
32633;SDS011;19043;51.012;5.648;2023-08-08T01:53:50;7.45;;;2.92;;
32633;SDS011;19043;51.012;5.648;2023-08-08T01:56:15;4.72;;;3.00;;
32633;SDS011;19043;51.012;5.648;2023-08-08T01:58:41;8.98;;;2.65;;
32633;SDS011;19043;51.012;5.648;2023-08-08T02:01:06;6.80;;;3.00;;
32633;SDS011;19043;51.012;5.648;2023-08-08T02:03:31;4.07;;;2.70;;
32633;SDS011;19043;51.012;5.648;2023-08-08T02:05:56;6.75;;;2.90;;
32633;SDS011;19043;51.012;5.648;2023-08-08T02:08:21;8.33;;;3.40;;
32633;SDS011;19043;51.012;5.648;2023-08-08T02:10:47;8.85;;;3.50;;
32633;SDS011;19043;51.012;5.648;2023-08-08T02:13:12;5.25;;;3.25;;
32633;SDS011;19043;51.012;5.648;2023-08-08T02:15:37;10.30;;;3.03;;
32633;SDS011;19043;51.012;5.648;2023-08-08T02:18:02;5.03;;;2.93;;
32633;SDS011;19043;51.012;5.648;2023-08-08T02:20:29;4.88;;;2.97;;
32633;SDS011;19043;51.012;5.648;2023-08-08T02:22:54;7.55;;;3.00;;
32633;SDS011;19043;51.012;5.648;2023-08-08T02:25:20;9.35;;;2.80;;
32633;SDS011;19043;51.012;5.648;2023-08-08T02:27:45;5.77;;;3.03;;
32633;SDS011;19043;51.012;5.648;2023-08-08T02:30:11;4.77;;;2.90;;
32633;SDS011;19043;51.012;5.648;2023-08-08T02:32:36;6.72;;;3.10;;
32633;SDS011;19043;51.012;5.648;2023-08-08T02:35:01;5.47;;;2.88;;
32633;SDS011;19043;51.012;5.648;2023-08-08T02:37:27;8.23;;;3.42;;
32633;SDS011;19043;51.012;5.648;2023-08-08T02:39:52;6.47;;;3.17;;
32633;SDS011;19043;51.012;5.648;2023-08-08T02:42:17;6.38;;;3.10;;
32633;SDS011;19043;51.012;5.648;2023-08-08T02:44:42;9.52;;;4.07;;
32633;SDS011;19043;51.012;5.648;2023-08-08T02:47:08;8.02;;;3.35;;
32633;SDS011;19043;51.012;5.648;2023-08-08T02:49:33;6.15;;;3.50;;
32633;SDS011;19043;51.012;5.648;2023-08-08T02:51:59;9.48;;;3.70;;
32633;SDS011;19043;51.012;5.648;2023-08-08T02:54:24;6.68;;;3.97;;
32633;SDS011;19043;51.012;5.648;2023-08-08T02:56:49;6.53;;;3.43;;
32633;SDS011;19043;51.012;5.648;2023-08-08T02:59:14;9.45;;;4.88;;
32633;SDS011;19043;51.012;5.648;2023-08-08T03:01:40;8.55;;;3.65;;
32633;SDS011;19043;51.012;5.648;2023-08-08T03:04:05;8.13;;;3.65;;
32633;SDS011;19043;51.012;5.648;2023-08-08T03:06:31;7.68;;;3.53;;
32633;SDS011;19043;51.012;5.648;2023-08-08T03:08:56;6.35;;;3.60;;
32633;SDS011;19043;51.012;5.648;2023-08-08T03:11:21;7.70;;;3.45;;
32633;SDS011;19043;51.012;5.648;2023-08-08T03:13:47;7.82;;;3.63;;
32633;SDS011;19043;51.012;5.648;2023-08-08T03:16:12;8.77;;;3.85;;
32633;SDS011;19043;51.012;5.648;2023-08-08T03:18:37;5.70;;;3.65;;
32633;SDS011;19043;51.012;5.648;2023-08-08T03:21:02;8.67;;;3.90;;
32633;SDS011;19043;51.012;5.648;2023-08-08T03:23:28;5.75;;;3.40;;
32633;SDS011;19043;51.012;5.648;2023-08-08T03:25:53;5.90;;;3.90;;
32633;SDS011;19043;51.012;5.648;2023-08-08T03:28:18;12.00;;;4.30;;
32633;SDS011;19043;51.012;5.648;2023-08-08T03:30:43;5.25;;;3.75;;
32633;SDS011;19043;51.012;5.648;2023-08-08T03:33:09;8.10;;;3.67;;
32633;SDS011;19043;51.012;5.648;2023-08-08T03:35:34;7.10;;;4.05;;
32633;SDS011;19043;51.012;5.648;2023-08-08T03:37:59;9.80;;;4.40;;
32633;SDS011;19043;51.012;5.648;2023-08-08T03:40:24;8.73;;;4.27;;
32633;SDS011;19043;51.012;5.648;2023-08-08T03:42:49;8.40;;;4.37;;
32633;SDS011;19043;51.012;5.648;2023-08-08T03:45:15;9.02;;;4.55;;
32633;SDS011;19043;51.012;5.648;2023-08-08T03:47:40;7.97;;;4.27;;
32633;SDS011;19043;51.012;5.648;2023-08-08T03:50:06;8.68;;;4.18;;
32633;SDS011;19043;51.012;5.648;2023-08-08T03:52:31;10.27;;;4.43;;
32633;SDS011;19043;51.012;5.648;2023-08-08T03:54:59;7.35;;;4.32;;
32633;SDS011;19043;51.012;5.648;2023-08-08T03:57:24;8.25;;;4.32;;
32633;SDS011;19043;51.012;5.648;2023-08-08T03:59:50;8.68;;;4.68;;
32633;SDS011;19043;51.012;5.648;2023-08-08T04:02:15;8.80;;;4.70;;
32633;SDS011;19043;51.012;5.648;2023-08-08T04:04:40;9.67;;;5.13;;
32633;SDS011;19043;51.012;5.648;2023-08-08T04:07:05;10.47;;;4.60;;
32633;SDS011;19043;51.012;5.648;2023-08-08T04:09:31;11.70;;;4.55;;
32633;SDS011;19043;51.012;5.648;2023-08-08T04:11:56;6.90;;;4.32;;
32633;SDS011;19043;51.012;5.648;2023-08-08T04:14:21;9.57;;;4.22;;
32633;SDS011;19043;51.012;5.648;2023-08-08T04:16:47;11.40;;;4.68;;
32633;SDS011;19043;51.012;5.648;2023-08-08T04:19:12;9.07;;;4.97;;
32633;SDS011;19043;51.012;5.648;2023-08-08T04:21:37;11.98;;;5.18;;
32633;SDS011;19043;51.012;5.648;2023-08-08T04:24:02;12.48;;;4.85;;
32633;SDS011;19043;51.012;5.648;2023-08-08T04:26:28;12.63;;;4.82;;
32633;SDS011;19043;51.012;5.648;2023-08-08T04:28:53;12.13;;;4.47;;
32633;SDS011;19043;51.012;5.648;2023-08-08T04:31:20;9.90;;;4.65;;
32633;SDS011;19043;51.012;5.648;2023-08-08T04:33:45;10.45;;;4.72;;
32633;SDS011;19043;51.012;5.648;2023-08-08T04:36:10;11.55;;;5.28;;
32633;SDS011;19043;51.012;5.648;2023-08-08T04:38:36;8.85;;;4.78;;
32633;SDS011;19043;51.012;5.648;2023-08-08T04:41:01;9.47;;;5.07;;
32633;SDS011;19043;51.012;5.648;2023-08-08T04:43:26;8.87;;;4.43;;
32633;SDS011;19043;51.012;5.648;2023-08-08T04:45:53;8.40;;;4.78;;
32633;SDS011;19043;51.012;5.648;2023-08-08T04:48:18;7.95;;;4.47;;
32633;SDS011;19043;51.012;5.648;2023-08-08T04:50:45;8.15;;;4.43;;
32633;SDS011;19043;51.012;5.648;2023-08-08T04:53:10;8.93;;;3.88;;
32633;SDS011;19043;51.012;5.648;2023-08-08T04:55:36;13.32;;;4.57;;
32633;SDS011;19043;51.012;5.648;2023-08-08T04:58:01;6.78;;;3.83;;
32633;SDS011;19043;51.012;5.648;2023-08-08T05:00:26;10.98;;;4.53;;
32633;SDS011;19043;51.012;5.648;2023-08-08T05:02:51;10.10;;;4.27;;
32633;SDS011;19043;51.012;5.648;2023-08-08T05:05:17;9.50;;;4.33;;
32633;SDS011;19043;51.012;5.648;2023-08-08T05:07:42;6.47;;;4.10;;
32633;SDS011;19043;51.012;5.648;2023-08-08T05:10:07;7.88;;;4.45;;
32633;SDS011;19043;51.012;5.648;2023-08-08T05:12:32;6.55;;;4.10;;
32633;SDS011;19043;51.012;5.648;2023-08-08T05:14:58;8.13;;;4.57;;
32633;SDS011;19043;51.012;5.648;2023-08-08T05:17:23;9.13;;;4.45;;
32633;SDS011;19043;51.012;5.648;2023-08-08T05:19:48;7.50;;;4.65;;
32633;SDS011;19043;51.012;5.648;2023-08-08T05:22:13;14.77;;;4.53;;
32633;SDS011;19043;51.012;5.648;2023-08-08T05:24:39;8.70;;;4.00;;
32633;SDS011;19043;51.012;5.648;2023-08-08T05:27:04;8.77;;;4.53;;
32633;SDS011;19043;51.012;5.648;2023-08-08T05:29:29;10.85;;;4.68;;
32633;SDS011;19043;51.012;5.648;2023-08-08T05:31:55;9.68;;;4.45;;
32633;SDS011;19043;51.012;5.648;2023-08-08T05:34:20;9.50;;;4.45;;
32633;SDS011;19043;51.012;5.648;2023-08-08T05:36:45;10.33;;;4.60;;
32633;SDS011;19043;51.012;5.648;2023-08-08T05:39:10;12.37;;;4.97;;
32633;SDS011;19043;51.012;5.648;2023-08-08T05:41:35;9.75;;;4.93;;
32633;SDS011;19043;51.012;5.648;2023-08-08T05:44:01;11.82;;;4.50;;
32633;SDS011;19043;51.012;5.648;2023-08-08T05:46:26;9.30;;;4.55;;
32633;SDS011;19043;51.012;5.648;2023-08-08T05:48:51;12.90;;;5.03;;
32633;SDS011;19043;51.012;5.648;2023-08-08T05:51:17;10.98;;;4.45;;
32633;SDS011;19043;51.012;5.648;2023-08-08T05:53:42;13.88;;;5.05;;
32633;SDS011;19043;51.012;5.648;2023-08-08T05:56:07;12.43;;;4.67;;
32633;SDS011;19043;51.012;5.648;2023-08-08T05:58:33;8.05;;;4.55;;
32633;SDS011;19043;51.012;5.648;2023-08-08T06:00:59;14.50;;;4.75;;
32633;SDS011;19043;51.012;5.648;2023-08-08T06:03:24;10.00;;;5.25;;
32633;SDS011;19043;51.012;5.648;2023-08-08T06:05:49;7.40;;;4.60;;
32633;SDS011;19043;51.012;5.648;2023-08-08T06:08:14;7.65;;;4.30;;
32633;SDS011;19043;51.012;5.648;2023-08-08T06:10:41;11.75;;;5.22;;
32633;SDS011;19043;51.012;5.648;2023-08-08T06:13:06;8.88;;;5.53;;
32633;SDS011;19043;51.012;5.648;2023-08-08T06:15:32;9.32;;;4.72;;
32633;SDS011;19043;51.012;5.648;2023-08-08T06:17:58;8.45;;;4.68;;
32633;SDS011;19043;51.012;5.648;2023-08-08T06:20:23;13.07;;;5.33;;
32633;SDS011;19043;51.012;5.648;2023-08-08T06:22:48;9.67;;;4.70;;
32633;SDS011;19043;51.012;5.648;2023-08-08T06:25:13;11.90;;;4.80;;
32633;SDS011;19043;51.012;5.648;2023-08-08T06:27:39;12.80;;;5.13;;
32633;SDS011;19043;51.012;5.648;2023-08-08T06:30:04;10.77;;;4.50;;
32633;SDS011;19043;51.012;5.648;2023-08-08T06:32:30;12.48;;;5.10;;
32633;SDS011;19043;51.012;5.648;2023-08-08T06:34:55;11.30;;;4.68;;
32633;SDS011;19043;51.012;5.648;2023-08-08T06:37:20;14.35;;;4.70;;
32633;SDS011;19043;51.012;5.648;2023-08-08T06:39:45;10.30;;;4.72;;
32633;SDS011;19043;51.012;5.648;2023-08-08T06:42:11;10.27;;;4.95;;
32633;SDS011;19043;51.012;5.648;2023-08-08T06:44:40;8.40;;;5.07;;
32633;SDS011;19043;51.012;5.648;2023-08-08T06:47:06;8.02;;;4.88;;
32633;SDS011;19043;51.012;5.648;2023-08-08T06:49:31;10.50;;;5.00;;
32633;SDS011;19043;51.012;5.648;2023-08-08T06:51:56;8.47;;;4.63;;
32633;SDS011;19043;51.012;5.648;2023-08-08T06:54:21;8.93;;;4.95;;
32633;SDS011;19043;51.012;5.648;2023-08-08T06:56:47;7.40;;;4.43;;
32633;SDS011;19043;51.012;5.648;2023-08-08T06:59:12;10.53;;;4.70;;
32633;SDS011;19043;51.012;5.648;2023-08-08T07:01:37;9.00;;;4.68;;
32633;SDS011;19043;51.012;5.648;2023-08-08T07:04:03;7.13;;;4.28;;
32633;SDS011;19043;51.012;5.648;2023-08-08T07:06:28;16.02;;;4.60;;
32633;SDS011;19043;51.012;5.648;2023-08-08T07:08:53;7.43;;;4.30;;
32633;SDS011;19043;51.012;5.648;2023-08-08T07:11:19;11.47;;;5.03;;
32633;SDS011;19043;51.012;5.648;2023-08-08T07:13:44;6.68;;;3.63;;
32633;SDS011;19043;51.012;5.648;2023-08-08T07:16:09;8.15;;;4.40;;
32633;SDS011;19043;51.012;5.648;2023-08-08T07:18:34;11.02;;;4.53;;
32633;SDS011;19043;51.012;5.648;2023-08-08T07:21:00;14.43;;;4.17;;
32633;SDS011;19043;51.012;5.648;2023-08-08T07:23:25;9.57;;;4.10;;
32633;SDS011;19043;51.012;5.648;2023-08-08T07:25:50;6.28;;;4.00;;
32633;SDS011;19043;51.012;5.648;2023-08-08T07:28:16;7.72;;;4.30;;
32633;SDS011;19043;51.012;5.648;2023-08-08T07:30:41;7.88;;;4.30;;
32633;SDS011;19043;51.012;5.648;2023-08-08T07:33:07;10.23;;;4.20;;
32633;SDS011;19043;51.012;5.648;2023-08-08T07:35:34;8.07;;;3.80;;
32633;SDS011;19043;51.012;5.648;2023-08-08T07:38:00;12.60;;;4.17;;
32633;SDS011;19043;51.012;5.648;2023-08-08T07:40:25;8.10;;;4.05;;
32633;SDS011;19043;51.012;5.648;2023-08-08T07:42:50;7.20;;;4.15;;
32633;SDS011;19043;51.012;5.648;2023-08-08T07:45:16;4.55;;;3.08;;
32633;SDS011;19043;51.012;5.648;2023-08-08T07:47:41;9.07;;;3.88;;
32633;SDS011;19043;51.012;5.648;2023-08-08T07:50:07;6.30;;;3.50;;
32633;SDS011;19043;51.012;5.648;2023-08-08T07:52:35;9.75;;;4.20;;
32633;SDS011;19043;51.012;5.648;2023-08-08T07:55:01;10.65;;;4.07;;
32633;SDS011;19043;51.012;5.648;2023-08-08T07:57:26;10.48;;;4.03;;
32633;SDS011;19043;51.012;5.648;2023-08-08T07:59:52;12.23;;;4.65;;
32633;SDS011;19043;51.012;5.648;2023-08-08T08:02:17;6.33;;;3.27;;
32633;SDS011;19043;51.012;5.648;2023-08-08T08:04:42;7.55;;;3.40;;
32633;SDS011;19043;51.012;5.648;2023-08-08T08:07:07;6.72;;;3.70;;
32633;SDS011;19043;51.012;5.648;2023-08-08T08:09:33;7.37;;;3.70;;
32633;SDS011;19043;51.012;5.648;2023-08-08T08:11:58;7.63;;;3.78;;
32633;SDS011;19043;51.012;5.648;2023-08-08T08:14:23;11.07;;;3.83;;
32633;SDS011;19043;51.012;5.648;2023-08-08T08:16:49;5.80;;;3.50;;
32633;SDS011;19043;51.012;5.648;2023-08-08T08:19:14;12.77;;;3.47;;
32633;SDS011;19043;51.012;5.648;2023-08-08T08:21:40;5.63;;;3.00;;
32633;SDS011;19043;51.012;5.648;2023-08-08T08:24:05;6.20;;;3.30;;
32633;SDS011;19043;51.012;5.648;2023-08-08T08:26:31;10.27;;;3.47;;
32633;SDS011;19043;51.012;5.648;2023-08-08T08:28:57;13.10;;;3.72;;
32633;SDS011;19043;51.012;5.648;2023-08-08T08:31:22;6.90;;;3.63;;
32633;SDS011;19043;51.012;5.648;2023-08-08T08:33:47;13.18;;;3.70;;
32633;SDS011;19043;51.012;5.648;2023-08-08T08:36:12;5.67;;;2.83;;
32633;SDS011;19043;51.012;5.648;2023-08-08T08:38:38;7.43;;;3.50;;
32633;SDS011;19043;51.012;5.648;2023-08-08T08:41:03;4.97;;;3.08;;
32633;SDS011;19043;51.012;5.648;2023-08-08T08:43:30;5.38;;;3.08;;
32633;SDS011;19043;51.012;5.648;2023-08-08T08:45:55;6.10;;;2.85;;
32633;SDS011;19043;51.012;5.648;2023-08-08T08:48:22;6.30;;;3.00;;
32633;SDS011;19043;51.012;5.648;2023-08-08T08:50:48;7.65;;;3.55;;
32633;SDS011;19043;51.012;5.648;2023-08-08T08:53:14;10.48;;;2.97;;
32633;SDS011;19043;51.012;5.648;2023-08-08T08:55:40;4.55;;;2.53;;
32633;SDS011;19043;51.012;5.648;2023-08-08T08:58:06;6.80;;;2.90;;
32633;SDS011;19043;51.012;5.648;2023-08-08T09:00:31;4.90;;;2.97;;
32633;SDS011;19043;51.012;5.648;2023-08-08T09:02:56;7.22;;;3.20;;
32633;SDS011;19043;51.012;5.648;2023-08-08T09:05:22;8.57;;;3.20;;
32633;SDS011;19043;51.012;5.648;2023-08-08T09:07:50;5.18;;;2.85;;
32633;SDS011;19043;51.012;5.648;2023-08-08T09:10:16;6.00;;;3.10;;
32633;SDS011;19043;51.012;5.648;2023-08-08T09:12:42;7.90;;;2.70;;
32633;SDS011;19043;51.012;5.648;2023-08-08T09:15:07;11.90;;;2.92;;
32633;SDS011;19043;51.012;5.648;2023-08-08T09:17:34;6.78;;;2.65;;
32633;SDS011;19043;51.012;5.648;2023-08-08T09:19:59;5.40;;;2.90;;
32633;SDS011;19043;51.012;5.648;2023-08-08T09:22:24;8.73;;;2.60;;
32633;SDS011;19043;51.012;5.648;2023-08-08T09:24:51;6.05;;;2.60;;
32633;SDS011;19043;51.012;5.648;2023-08-08T09:27:17;9.13;;;2.97;;
32633;SDS011;19043;51.012;5.648;2023-08-08T09:29:42;7.83;;;2.77;;
32633;SDS011;19043;51.012;5.648;2023-08-08T09:32:07;5.07;;;2.22;;
32633;SDS011;19043;51.012;5.648;2023-08-08T09:34:33;4.25;;;2.38;;
32633;SDS011;19043;51.012;5.648;2023-08-08T09:36:58;7.22;;;2.97;;
32633;SDS011;19043;51.012;5.648;2023-08-08T09:39:25;8.57;;;3.33;;
32633;SDS011;19043;51.012;5.648;2023-08-08T09:41:50;6.75;;;2.80;;
32633;SDS011;19043;51.012;5.648;2023-08-08T09:44:15;4.97;;;2.30;;
32633;SDS011;19043;51.012;5.648;2023-08-08T09:46:41;7.40;;;3.05;;
32633;SDS011;19043;51.012;5.648;2023-08-08T09:49:06;6.38;;;2.67;;
32633;SDS011;19043;51.012;5.648;2023-08-08T09:51:32;4.90;;;2.35;;
32633;SDS011;19043;51.012;5.648;2023-08-08T09:53:59;6.15;;;2.55;;
32633;SDS011;19043;51.012;5.648;2023-08-08T09:56:24;7.60;;;2.90;;
32633;SDS011;19043;51.012;5.648;2023-08-08T09:58:50;5.60;;;2.33;;
32633;SDS011;19043;51.012;5.648;2023-08-08T10:01:16;9.50;;;2.90;;
32633;SDS011;19043;51.012;5.648;2023-08-08T10:03:41;8.38;;;2.35;;
32633;SDS011;19043;51.012;5.648;2023-08-08T10:06:09;5.28;;;2.53;;
32633;SDS011;19043;51.012;5.648;2023-08-08T10:08:35;6.60;;;2.60;;
32633;SDS011;19043;51.012;5.648;2023-08-08T10:11:00;4.35;;;2.38;;
32633;SDS011;19043;51.012;5.648;2023-08-08T10:13:26;6.30;;;2.75;;
32633;SDS011;19043;51.012;5.648;2023-08-08T10:15:52;6.70;;;2.33;;
32633;SDS011;19043;51.012;5.648;2023-08-08T10:18:18;3.45;;;2.13;;
32633;SDS011;19043;51.012;5.648;2023-08-08T10:20:43;4.85;;;2.45;;
32633;SDS011;19043;51.012;5.648;2023-08-08T10:23:09;4.97;;;2.13;;
32633;SDS011;19043;51.012;5.648;2023-08-08T10:25:35;4.93;;;2.08;;
32633;SDS011;19043;51.012;5.648;2023-08-08T10:28:10;6.20;;;2.75;;
32633;SDS011;19043;51.012;5.648;2023-08-08T10:30:47;3.95;;;2.25;;
32633;SDS011;19043;51.012;5.648;2023-08-08T10:33:22;4.28;;;2.22;;
32633;SDS011;19043;51.012;5.648;2023-08-08T10:36:03;5.45;;;2.63;;
32633;SDS011;19043;51.012;5.648;2023-08-08T10:38:42;3.65;;;2.03;;
32633;SDS011;19043;51.012;5.648;2023-08-08T10:41:11;5.30;;;2.55;;
32633;SDS011;19043;51.012;5.648;2023-08-08T10:43:37;5.90;;;2.15;;
32633;SDS011;19043;51.012;5.648;2023-08-08T10:46:03;5.50;;;2.35;;
32633;SDS011;19043;51.012;5.648;2023-08-08T10:48:28;11.00;;;2.25;;
32633;SDS011;19043;51.012;5.648;2023-08-08T10:50:54;3.40;;;1.90;;
32633;SDS011;19043;51.012;5.648;2023-08-08T10:53:22;5.30;;;1.95;;
32633;SDS011;19043;51.012;5.648;2023-08-08T10:55:47;3.78;;;2.22;;
32633;SDS011;19043;51.012;5.648;2023-08-08T10:58:21;6.13;;;2.67;;
32633;SDS011;19043;51.012;5.648;2023-08-08T11:00:47;4.25;;;1.77;;
32633;SDS011;19043;51.012;5.648;2023-08-08T11:03:13;4.65;;;2.13;;
32633;SDS011;19043;51.012;5.648;2023-08-08T11:05:38;4.25;;;2.22;;
32633;SDS011;19043;51.012;5.648;2023-08-08T11:08:04;3.70;;;2.03;;
32633;SDS011;19043;51.012;5.648;2023-08-08T11:10:39;4.93;;;1.83;;
32633;SDS011;19043;51.012;5.648;2023-08-08T11:13:06;6.10;;;1.85;;
32633;SDS011;19043;51.012;5.648;2023-08-08T11:15:32;5.43;;;2.17;;
32633;SDS011;19043;51.012;5.648;2023-08-08T11:17:57;6.05;;;2.20;;
32633;SDS011;19043;51.012;5.648;2023-08-08T11:20:23;3.85;;;1.95;;
32633;SDS011;19043;51.012;5.648;2023-08-08T11:22:55;6.15;;;2.22;;
32633;SDS011;19043;51.012;5.648;2023-08-08T11:25:21;7.40;;;1.95;;
32633;SDS011;19043;51.012;5.648;2023-08-08T11:27:50;3.13;;;1.60;;
32633;SDS011;19043;51.012;5.648;2023-08-08T11:30:16;3.92;;;1.80;;
32633;SDS011;19043;51.012;5.648;2023-08-08T11:32:41;4.23;;;1.67;;
32633;SDS011;19043;51.012;5.648;2023-08-08T11:35:07;4.57;;;1.92;;
32633;SDS011;19043;51.012;5.648;2023-08-08T11:37:32;3.55;;;1.90;;
32633;SDS011;19043;51.012;5.648;2023-08-08T11:39:57;4.55;;;1.95;;
32633;SDS011;19043;51.012;5.648;2023-08-08T11:42:23;6.15;;;2.28;;
32633;SDS011;19043;51.012;5.648;2023-08-08T11:44:48;4.70;;;2.20;;
32633;SDS011;19043;51.012;5.648;2023-08-08T11:47:15;9.20;;;2.22;;
32633;SDS011;19043;51.012;5.648;2023-08-08T11:49:41;5.80;;;2.20;;
32633;SDS011;19043;51.012;5.648;2023-08-08T11:52:07;4.07;;;2.00;;
32633;SDS011;19043;51.012;5.648;2023-08-08T11:54:33;5.82;;;2.33;;
32633;SDS011;19043;51.012;5.648;2023-08-08T11:56:58;3.33;;;1.67;;
32633;SDS011;19043;51.012;5.648;2023-08-08T11:59:23;6.33;;;2.57;;
32633;SDS011;19043;51.012;5.648;2023-08-08T12:01:49;5.40;;;1.92;;
32633;SDS011;19043;51.012;5.648;2023-08-08T12:04:14;4.15;;;1.70;;
32633;SDS011;19043;51.012;5.648;2023-08-08T12:06:40;9.52;;;2.33;;
32633;SDS011;19043;51.012;5.648;2023-08-08T12:09:07;5.55;;;2.20;;
32633;SDS011;19043;51.012;5.648;2023-08-08T12:11:36;9.18;;;2.53;;
32633;SDS011;19043;51.012;5.648;2023-08-08T12:14:06;5.60;;;2.28;;
32633;SDS011;19043;51.012;5.648;2023-08-08T12:16:32;4.88;;;2.05;;
32633;SDS011;19043;51.012;5.648;2023-08-08T12:18:59;4.93;;;1.50;;
32633;SDS011;19043;51.012;5.648;2023-08-08T12:21:26;7.07;;;2.40;;
32633;SDS011;19043;51.012;5.648;2023-08-08T12:23:51;4.47;;;2.22;;
32633;SDS011;19043;51.012;5.648;2023-08-08T12:26:17;7.07;;;2.25;;
32633;SDS011;19043;51.012;5.648;2023-08-08T12:28:43;4.97;;;2.00;;
32633;SDS011;19043;51.012;5.648;2023-08-08T12:31:09;4.80;;;1.65;;
32633;SDS011;19043;51.012;5.648;2023-08-08T12:33:34;3.20;;;1.73;;
32633;SDS011;19043;51.012;5.648;2023-08-08T12:35:59;3.27;;;1.60;;
32633;SDS011;19043;51.012;5.648;2023-08-08T12:38:25;5.35;;;2.30;;
32633;SDS011;19043;51.012;5.648;2023-08-08T12:40:50;3.97;;;2.05;;
32633;SDS011;19043;51.012;5.648;2023-08-08T12:43:15;5.63;;;2.22;;
32633;SDS011;19043;51.012;5.648;2023-08-08T12:45:44;4.20;;;1.77;;
32633;SDS011;19043;51.012;5.648;2023-08-08T12:48:10;5.38;;;1.70;;
32633;SDS011;19043;51.012;5.648;2023-08-08T12:50:35;7.15;;;1.92;;
32633;SDS011;19043;51.012;5.648;2023-08-08T12:53:01;3.40;;;1.80;;
32633;SDS011;19043;51.012;5.648;2023-08-08T12:55:26;3.22;;;1.67;;
32633;SDS011;19043;51.012;5.648;2023-08-08T12:57:51;4.32;;;2.15;;
32633;SDS011;19043;51.012;5.648;2023-08-08T13:00:16;3.08;;;1.83;;
32633;SDS011;19043;51.012;5.648;2023-08-08T13:02:42;3.40;;;1.60;;
32633;SDS011;19043;51.012;5.648;2023-08-08T13:05:08;3.72;;;1.45;;
32633;SDS011;19043;51.012;5.648;2023-08-08T13:07:34;3.53;;;1.65;;
32633;SDS011;19043;51.012;5.648;2023-08-08T13:10:00;3.58;;;1.73;;
32633;SDS011;19043;51.012;5.648;2023-08-08T13:12:25;5.85;;;1.38;;
32633;SDS011;19043;51.012;5.648;2023-08-08T13:14:50;5.60;;;1.40;;
32633;SDS011;19043;51.012;5.648;2023-08-08T13:17:15;4.80;;;1.77;;
32633;SDS011;19043;51.012;5.648;2023-08-08T13:19:41;5.47;;;1.47;;
32633;SDS011;19043;51.012;5.648;2023-08-08T13:22:06;6.95;;;1.45;;
32633;SDS011;19043;51.012;5.648;2023-08-08T13:24:31;6.43;;;1.63;;
32633;SDS011;19043;51.012;5.648;2023-08-08T13:26:57;6.20;;;1.38;;
32633;SDS011;19043;51.012;5.648;2023-08-08T13:29:22;3.88;;;1.70;;
32633;SDS011;19043;51.012;5.648;2023-08-08T13:31:47;3.50;;;1.55;;
32633;SDS011;19043;51.012;5.648;2023-08-08T13:34:12;3.10;;;1.20;;
32633;SDS011;19043;51.012;5.648;2023-08-08T13:36:38;3.60;;;1.40;;
32633;SDS011;19043;51.012;5.648;2023-08-08T13:39:03;5.88;;;1.42;;
32633;SDS011;19043;51.012;5.648;2023-08-08T13:41:29;2.42;;;1.35;;
32633;SDS011;19043;51.012;5.648;2023-08-08T13:43:54;5.80;;;1.52;;
32633;SDS011;19043;51.012;5.648;2023-08-08T13:46:19;3.10;;;1.30;;
32633;SDS011;19043;51.012;5.648;2023-08-08T13:48:45;2.30;;;1.05;;
32633;SDS011;19043;51.012;5.648;2023-08-08T13:51:10;2.28;;;1.20;;
32633;SDS011;19043;51.012;5.648;2023-08-08T13:53:35;2.65;;;1.25;;
32633;SDS011;19043;51.012;5.648;2023-08-08T13:56:00;2.43;;;1.20;;
32633;SDS011;19043;51.012;5.648;2023-08-08T13:58:26;4.88;;;1.45;;
32633;SDS011;19043;51.012;5.648;2023-08-08T14:00:51;2.90;;;1.27;;
32633;SDS011;19043;51.012;5.648;2023-08-08T14:03:17;2.38;;;1.02;;
32633;SDS011;19043;51.012;5.648;2023-08-08T14:05:42;3.38;;;1.42;;
32633;SDS011;19043;51.012;5.648;2023-08-08T14:08:08;2.95;;;1.30;;
32633;SDS011;19043;51.012;5.648;2023-08-08T14:10:34;1.65;;;0.88;;
32633;SDS011;19043;51.012;5.648;2023-08-08T14:13:00;2.83;;;1.35;;
32633;SDS011;19043;51.012;5.648;2023-08-08T14:15:25;2.83;;;1.38;;
32633;SDS011;19043;51.012;5.648;2023-08-08T14:17:50;3.08;;;1.40;;
32633;SDS011;19043;51.012;5.648;2023-08-08T14:20:16;3.88;;;1.40;;
32633;SDS011;19043;51.012;5.648;2023-08-08T14:22:44;3.13;;;1.30;;
32633;SDS011;19043;51.012;5.648;2023-08-08T14:25:09;2.13;;;1.00;;
32633;SDS011;19043;51.012;5.648;2023-08-08T14:27:34;4.38;;;1.35;;
32633;SDS011;19043;51.012;5.648;2023-08-08T14:30:01;3.13;;;1.23;;
32633;SDS011;19043;51.012;5.648;2023-08-08T14:32:26;3.53;;;1.20;;
32633;SDS011;19043;51.012;5.648;2023-08-08T14:34:51;2.47;;;1.23;;
32633;SDS011;19043;51.012;5.648;2023-08-08T14:37:17;3.57;;;1.27;;
32633;SDS011;19043;51.012;5.648;2023-08-08T14:39:42;2.80;;;1.25;;